Time;durP1;ratioP1;P1;durP2;ratioP2;P2;SDS_P1;SDS_P2;PMS_P1;PMS_P2;Temp;Humidity;BMP_temperature;BMP_pressure;BME280_temperature;BME280_humidity;BME280_pressure;Samples;Min_cycle;Max_cycle;Signal;HPM_P1;HPM_P2
2020/12/10 00:02:14;;;;;;;13.65;9.32;;;-0.90;99.90;;;;;;4995082;28;20196;-76
2020/12/10 00:04:39;;;;;;;15.18;9.27;;;-0.90;99.90;;;;;;4994277;28;20266;-76
2020/12/10 00:07:06;;;;;;;15.57;9.57;;;-0.90;99.90;;;;;;4995631;28;20716;-77
2020/12/10 00:09:32;;;;;;;13.93;9.10;;;-0.90;99.90;;;;;;4994331;28;20184;-78
2020/12/10 00:12:00;;;;;;;17.02;9.73;;;-1.00;99.90;;;;;;4993673;28;20196;-76
2020/12/10 00:14:27;;;;;;;20.98;9.43;;;-0.90;99.90;;;;;;4995608;28;20258;-77
2020/12/10 00:16:53;;;;;;;12.88;8.27;;;-0.90;99.90;;;;;;4995450;28;20214;-76
2020/12/10 00:19:18;;;;;;;15.73;8.00;;;-0.90;99.90;;;;;;4995585;28;20596;-77
2020/12/10 00:21:44;;;;;;;18.70;9.77;;;-0.90;99.90;;;;;;4995114;28;20198;-77
2020/12/10 00:24:09;;;;;;;15.47;8.90;;;-0.90;99.90;;;;;;4994897;28;20583;-76
2020/12/10 00:26:35;;;;;;;14.50;8.87;;;-0.80;99.90;;;;;;4995300;28;20195;-77
2020/12/10 00:29:01;;;;;;;15.10;9.80;;;-0.70;99.90;;;;;;4995153;28;20211;-76
2020/12/10 00:31:26;;;;;;;16.77;9.17;;;-0.70;99.90;;;;;;4995002;28;20298;-75
2020/12/10 00:33:52;;;;;;;20.00;11.10;;;-0.70;99.90;;;;;;4994572;28;20199;-77
2020/12/10 00:36:17;;;;;;;18.63;9.47;;;-0.50;99.90;;;;;;4994967;28;20207;-76
2020/12/10 00:38:43;;;;;;;15.30;10.47;;;-0.40;99.90;;;;;;4995034;28;20179;-75
2020/12/10 00:41:09;;;;;;;17.70;9.63;;;-0.30;99.90;;;;;;4994979;28;20293;-75
2020/12/10 00:43:35;;;;;;;22.00;11.77;;;-0.30;99.90;;;;;;4994687;28;20190;-75
2020/12/10 00:46:04;;;;;;;22.10;13.10;;;-0.10;99.90;;;;;;4993396;28;20187;-75
2020/12/10 00:48:31;;;;;;;20.17;11.68;;;0.00;99.90;;;;;;4994776;28;20206;-74
2020/12/10 00:50:57;;;;;;;26.00;13.90;;;0.00;99.90;;;;;;4994587;28;20195;-75
2020/12/10 00:53:22;;;;;;;23.90;13.60;;;0.00;99.90;;;;;;4993151;28;20573;-74
2020/12/10 00:55:48;;;;;;;21.83;12.80;;;0.00;99.90;;;;;;4994560;28;20176;-74
2020/12/10 00:58:14;;;;;;;23.93;12.63;;;0.10;99.90;;;;;;4994375;28;20251;-76
2020/12/10 01:00:39;;;;;;;29.40;15.57;;;0.20;99.90;;;;;;4994256;28;20266;-78
2020/12/10 01:03:05;;;;;;;26.47;15.60;;;0.20;99.90;;;;;;4994095;28;20254;-76
2020/12/10 01:05:30;;;;;;;30.00;16.10;;;0.20;99.90;;;;;;4994391;28;20180;-75
2020/12/10 01:07:56;;;;;;;24.67;13.97;;;0.30;99.90;;;;;;4994285;28;20199;-76
2020/12/10 01:10:22;;;;;;;35.37;15.90;;;0.30;99.90;;;;;;4994040;28;20683;-75
2020/12/10 01:12:47;;;;;;;26.57;15.50;;;0.30;99.90;;;;;;4993845;28;20187;-76
2020/12/10 01:15:13;;;;;;;31.40;18.20;;;0.30;99.90;;;;;;4994168;28;20176;-76
2020/12/10 01:17:42;;;;;;;31.83;16.77;;;0.40;99.90;;;;;;4994300;28;20653;-75
2020/12/10 01:20:09;;;;;;;29.20;17.52;;;0.30;99.90;;;;;;4994008;28;20179;-75
2020/12/10 01:22:35;;;;;;;25.75;15.95;;;0.40;99.90;;;;;;4993745;28;20172;-75
2020/12/10 01:25:01;;;;;;;30.25;17.85;;;0.20;99.90;;;;;;4994097;28;20552;-75
2020/12/10 01:27:26;;;;;;;29.80;17.87;;;0.20;99.90;;;;;;4994019;28;20211;-76
2020/12/10 01:29:52;;;;;;;34.00;17.37;;;0.20;99.90;;;;;;4994327;28;20168;-76
2020/12/10 01:32:18;;;;;;;28.17;15.67;;;0.10;99.90;;;;;;4993797;28;20747;-75
2020/12/10 01:34:43;;;;;;;25.60;16.53;;;0.00;99.90;;;;;;4994067;28;20203;-77
2020/12/10 01:37:09;;;;;;;29.03;17.00;;;0.10;99.90;;;;;;4994193;28;20242;-76
2020/12/10 01:39:34;;;;;;;28.63;16.93;;;0.00;99.90;;;;;;4994065;28;20168;-76
2020/12/10 01:42:01;;;;;;;28.40;16.70;;;0.00;99.90;;;;;;4993616;28;20587;-76
2020/12/10 01:44:27;;;;;;;24.90;15.30;;;-0.10;99.90;;;;;;4993966;28;20171;-75
2020/12/10 01:46:53;;;;;;;25.52;16.15;;;-0.20;99.90;;;;;;4992699;28;20532;-76
2020/12/10 01:49:19;;;;;;;29.27;18.07;;;-0.20;99.90;;;;;;4993993;28;20186;-75
2020/12/10 01:51:45;;;;;;;30.77;15.77;;;-0.20;99.90;;;;;;4993680;28;20203;-75
2020/12/10 01:54:10;;;;;;;28.03;16.40;;;-0.20;99.90;;;;;;4993583;28;20176;-76
2020/12/10 01:56:36;;;;;;;28.43;16.23;;;-0.30;99.90;;;;;;4994010;28;20198;-76
2020/12/10 01:59:03;;;;;;;27.20;15.90;;;-0.30;99.90;;;;;;4997866;28;20663;-76
2020/12/10 02:01:30;;;;;;;28.63;16.23;;;-0.40;99.90;;;;;;4997786;28;20199;-75
2020/12/10 02:03:56;;;;;;;26.48;15.85;;;-0.50;99.90;;;;;;4997574;28;20183;-75
2020/12/10 02:06:21;;;;;;;30.45;17.63;;;-0.50;99.90;;;;;;4997792;28;20183;-76
2020/12/10 02:08:47;;;;;;;29.20;17.50;;;-0.50;99.90;;;;;;4997532;28;20233;-76
2020/12/10 02:11:13;;;;;;;33.53;17.40;;;-0.60;99.90;;;;;;4997442;28;20195;-75
2020/12/10 02:13:39;;;;;;;33.07;17.60;;;-0.60;99.90;;;;;;4997267;28;20175;-76
2020/12/10 02:16:06;;;;;;;31.38;16.25;;;-0.50;99.90;;;;;;4997665;28;20417;-75
2020/12/10 02:18:31;;;;;;;26.92;15.77;;;-0.50;99.90;;;;;;4997487;28;20547;-75
2020/12/10 02:20:57;;;;;;;31.87;16.00;;;-0.50;99.90;;;;;;4997157;28;20205;-77
2020/12/10 02:30:07;;;;;;;31.70;17.23;;;-0.60;99.90;;;;;;4997543;28;20271;-77
2020/12/10 02:32:33;;;;;;;28.97;15.30;;;-0.70;99.90;;;;;;4995582;28;20282;-76
2020/12/10 02:34:58;;;;;;;29.87;16.30;;;-0.70;99.90;;;;;;4996011;28;20183;-75
2020/12/10 02:37:24;;;;;;;29.73;16.83;;;-0.70;99.90;;;;;;4997136;28;20177;-76
2020/12/10 02:39:49;;;;;;;29.77;16.13;;;-0.80;99.90;;;;;;4997068;28;20184;-75
2020/12/10 02:42:15;;;;;;;29.80;17.77;;;-0.80;99.90;;;;;;4996867;28;20542;-75
2020/12/10 02:44:40;;;;;;;34.80;18.40;;;-0.90;99.90;;;;;;4997211;28;20182;-75
2020/12/10 02:47:06;;;;;;;35.07;18.30;;;-0.90;99.90;;;;;;4995715;28;20275;-76
2020/12/10 02:49:32;;;;;;;34.70;18.27;;;-0.90;99.90;;;;;;4997074;28;20203;-75
2020/12/10 02:51:57;;;;;;;28.00;16.73;;;-0.90;99.90;;;;;;4996562;28;20219;-77
2020/12/10 02:54:23;;;;;;;32.47;18.70;;;-0.90;99.90;;;;;;4996924;28;20262;-76
2020/12/10 02:56:48;;;;;;;31.23;18.97;;;-1.00;99.90;;;;;;4996843;28;20307;-76
2020/12/10 02:59:14;;;;;;;32.27;17.77;;;-1.00;99.90;;;;;;4996626;28;20179;-76
2020/12/10 03:01:39;;;;;;;34.10;19.17;;;-1.00;99.90;;;;;;4996569;28;20206;-75
2020/12/10 03:04:05;;;;;;;30.97;18.07;;;-1.00;99.90;;;;;;4996350;28;20179;-75
2020/12/10 03:06:31;;;;;;;29.57;17.57;;;-1.00;99.90;;;;;;4995478;28;20183;-75
2020/12/10 03:08:57;;;;;;;32.93;20.50;;;-0.90;99.90;;;;;;4996416;28;20203;-76
2020/12/10 03:11:23;;;;;;;36.67;17.40;;;-0.90;99.90;;;;;;4996352;28;20191;-76
2020/12/10 03:13:48;;;;;;;26.97;16.37;;;-0.90;99.90;;;;;;4996073;28;20168;-76
2020/12/10 03:16:14;;;;;;;33.30;18.60;;;-0.90;99.90;;;;;;4996413;28;20194;-76
2020/12/10 03:18:40;;;;;;;28.77;15.63;;;-0.90;99.90;;;;;;4996293;28;20175;-75
2020/12/10 03:21:05;;;;;;;30.93;17.00;;;-0.90;99.90;;;;;;4994920;28;20207;-76
2020/12/10 03:23:31;;;;;;;27.73;17.10;;;-0.90;99.90;;;;;;4995845;28;20258;-75
2020/12/10 03:25:58;;;;;;;31.53;16.33;;;-0.90;99.90;;;;;;4996205;28;20187;-75
2020/12/10 03:28:23;;;;;;;30.75;18.40;;;-0.90;99.90;;;;;;4996165;28;20633;-76
2020/12/10 03:30:49;;;;;;;31.27;17.00;;;-0.90;99.90;;;;;;4996080;28;20252;-74
2020/12/10 03:33:15;;;;;;;30.73;18.13;;;-0.90;99.90;;;;;;4995627;28;20563;-76
2020/12/10 03:35:40;;;;;;;27.90;16.40;;;-1.00;99.90;;;;;;4996129;28;20915;-76
2020/12/10 03:38:06;;;;;;;33.07;18.53;;;-1.00;99.90;;;;;;4996191;28;20172;-75
2020/12/10 03:40:31;;;;;;;37.07;19.10;;;-1.00;99.90;;;;;;4995904;28;20672;-76
2020/12/10 03:42:57;;;;;;;28.13;16.40;;;-1.00;99.90;;;;;;4995783;28;20199;-75
2020/12/10 03:45:22;;;;;;;34.13;17.43;;;-1.10;99.90;;;;;;4995798;28;20179;-77
2020/12/10 03:47:48;;;;;;;29.40;15.43;;;-1.10;99.90;;;;;;4995656;28;20664;-75
2020/12/10 03:50:14;;;;;;;30.07;17.30;;;-1.10;99.90;;;;;;4995894;28;20203;-76
2020/12/10 03:52:39;;;;;;;28.67;16.50;;;-1.10;99.90;;;;;;4995592;28;20172;-75
2020/12/10 03:55:05;;;;;;;30.37;16.60;;;-1.10;99.90;;;;;;4995806;28;20171;-76
2020/12/10 03:57:30;;;;;;;29.40;15.80;;;-1.10;99.90;;;;;;4994530;28;20183;-75
2020/12/10 03:59:56;;;;;;;27.13;16.03;;;-1.10;99.90;;;;;;4995488;28;20180;-76
2020/12/10 04:02:22;;;;;;;25.63;13.80;;;-1.00;99.90;;;;;;4995234;28;20176;-74
2020/12/10 04:04:49;;;;;;;29.93;17.37;;;-1.10;99.90;;;;;;4994396;28;20581;-76
2020/12/10 04:07:15;;;;;;;30.70;17.67;;;-1.10;99.90;;;;;;4995531;28;20222;-75
2020/12/10 04:09:41;;;;;;;27.43;14.70;;;-1.10;99.90;;;;;;4995408;28;20625;-76
2020/12/10 04:12:06;;;;;;;31.17;15.67;;;-1.10;99.90;;;;;;4994915;28;20254;-75
2020/12/10 04:14:32;;;;;;;26.00;15.13;;;-1.10;99.90;;;;;;4995266;28;20197;-75
2020/12/10 04:16:57;;;;;;;29.10;14.93;;;-1.00;99.90;;;;;;4995319;28;20175;-75
2020/12/10 04:19:25;;;;;;;31.73;16.15;;;-1.10;99.90;;;;;;4994909;28;20206;-75
2020/12/10 04:21:50;;;;;;;25.60;14.83;;;-1.20;99.90;;;;;;4993644;28;20251;-76
2020/12/10 04:24:16;;;;;;;30.53;16.97;;;-1.20;99.90;;;;;;4995055;28;20191;-77
2020/12/10 04:26:43;;;;;;;26.77;14.10;;;-1.20;99.90;;;;;;4995121;28;20183;-75
2020/12/10 04:29:13;;;;;;;23.67;13.93;;;-1.10;99.90;;;;;;4995155;28;20206;-75
2020/12/10 04:31:38;;;;;;;26.70;14.07;;;-1.10;99.90;;;;;;4994042;28;21047;-76
2020/12/10 04:34:04;;;;;;;22.97;13.70;;;-1.20;99.90;;;;;;4994732;28;20229;-75
2020/12/10 04:36:29;;;;;;;25.47;15.00;;;-1.20;99.90;;;;;;4995018;28;20625;-76
2020/12/10 04:38:55;;;;;;;28.30;15.10;;;-1.20;99.90;;;;;;4994918;28;20171;-75
2020/12/10 04:41:21;;;;;;;26.50;14.10;;;-1.20;99.90;;;;;;4993570;28;20221;-75
2020/12/10 04:43:46;;;;;;;29.60;17.17;;;-1.20;99.90;;;;;;4994479;28;20186;-75
2020/12/10 04:46:14;;;;;;;28.97;16.50;;;-1.20;99.90;;;;;;4994996;28;20269;-75
2020/12/10 04:48:40;;;;;;;30.88;16.60;;;-1.20;99.90;;;;;;4995040;28;20206;-76
2020/12/10 04:51:08;;;;;;;29.10;15.68;;;-1.10;99.90;;;;;;4994794;28;20200;-75
2020/12/10 04:53:34;;;;;;;28.58;14.90;;;-1.10;99.90;;;;;;4993315;28;20181;-75
2020/12/10 04:56:08;;;;;;;28.90;15.85;;;-1.10;99.90;;;;;;4994604;28;20295;-75
2020/12/10 04:58:34;;;;;;;27.73;15.60;;;-1.10;99.90;;;;;;4994671;28;20237;-75
2020/12/10 05:01:02;;;;;;;28.35;14.93;;;-1.20;99.90;;;;;;4993149;28;20203;-75
2020/12/10 05:03:28;;;;;;;29.60;16.23;;;-1.10;99.90;;;;;;4994167;28;20250;-76
2020/12/10 05:06:08;;;;;;;32.60;16.65;;;-1.20;99.90;;;;;;4994450;28;20171;-76
2020/12/10 05:08:34;;;;;;;27.02;15.60;;;-1.10;99.90;;;;;;4993009;28;20207;-75
2020/12/10 05:11:01;;;;;;;28.05;15.27;;;-1.10;99.90;;;;;;4994182;28;20195;-76
2020/12/10 05:13:26;;;;;;;30.30;16.17;;;-1.10;99.90;;;;;;4992824;28;20646;-75
2020/12/10 05:15:52;;;;;;;29.50;16.70;;;-1.10;99.90;;;;;;4994245;28;20203;-76
2020/12/10 05:18:18;;;;;;;28.27;15.53;;;-1.10;99.90;;;;;;4994053;28;20414;-77
2020/12/10 05:20:46;;;;;;;31.40;16.40;;;-1.20;99.90;;;;;;4994053;28;20233;-76
2020/12/10 05:23:13;;;;;;;26.13;14.38;;;-1.10;99.90;;;;;;4993826;28;20534;-75
2020/12/10 05:25:50;;;;;;;29.95;15.63;;;-1.10;99.90;;;;;;4994189;28;20190;-76
2020/12/10 05:28:17;;;;;;;28.83;16.05;;;-1.00;99.90;;;;;;4992685;28;20202;-76
2020/12/10 05:30:44;;;;;;;31.85;16.65;;;-1.10;99.90;;;;;;4993768;28;20194;-75
2020/12/10 05:33:14;;;;;;;30.95;16.90;;;-1.10;99.90;;;;;;4992847;28;20209;-76
2020/12/10 05:35:40;;;;;;;33.00;17.25;;;-1.10;99.90;;;;;;4994234;28;20254;-75
2020/12/10 05:38:12;;;;;;;38.17;18.83;;;-1.00;99.90;;;;;;4994183;28;20178;-74
2020/12/10 05:40:39;;;;;;;33.38;18.27;;;-1.10;99.90;;;;;;4993960;28;20203;-75
2020/12/10 05:43:05;;;;;;;32.47;16.25;;;-1.10;99.90;;;;;;4993649;28;20548;-75
2020/12/10 05:45:38;;;;;;;36.03;18.52;;;-1.30;99.90;;;;;;4993893;28;20258;-75
2020/12/10 05:48:04;;;;;;;39.35;17.75;;;-1.20;99.90;;;;;;4993795;28;20266;-76
2020/12/10 05:50:31;;;;;;;31.98;16.90;;;-1.20;99.90;;;;;;4993708;28;20186;-75
2020/12/10 05:53:07;;;;;;;30.70;16.90;;;-1.20;99.90;;;;;;4993598;28;20183;-75
2020/12/10 05:55:35;;;;;;;31.10;17.05;;;-1.20;99.90;;;;;;4993912;28;20565;-75
2020/12/10 05:58:02;;;;;;;42.03;17.65;;;-1.20;99.90;;;;;;4993710;28;20207;-76
2020/12/10 06:00:28;;;;;;;32.95;17.90;;;-1.20;99.90;;;;;;4993505;28;20195;-77
2020/12/10 06:02:58;;;;;;;34.60;17.87;;;-1.10;99.90;;;;;;4993458;28;20202;-75
2020/12/10 06:05:24;;;;;;;32.80;16.15;;;-1.10;99.90;;;;;;4993821;28;20633;-75
2020/12/10 06:08:09;;;;;;;33.10;18.08;;;-1.10;99.90;;;;;;4993703;28;20241;-76
2020/12/10 06:10:39;;;;;;;33.42;19.50;;;-1.20;99.90;;;;;;4993539;28;20560;-76
2020/12/10 06:13:06;;;;;;;39.20;17.50;;;-1.20;99.90;;;;;;4992051;28;20175;-76
2020/12/10 06:15:34;;;;;;;30.25;16.10;;;-1.20;99.90;;;;;;4993584;28;20226;-76
2020/12/10 06:18:08;;;;;;;32.58;16.52;;;-1.20;99.90;;;;;;4993653;28;20547;-76
2020/12/10 06:20:45;;;;;;;31.35;16.10;;;-1.20;99.90;;;;;;4993471;28;20518;-76
2020/12/10 06:25:51;;;;;;;37.03;17.20;;;-1.20;99.90;;;;;;4993298;28;20180;-75
2020/12/10 06:28:19;;;;;;;28.38;14.95;;;-1.20;99.90;;;;;;4993414;28;20211;-75
2020/12/10 06:31:04;;;;;;;31.17;15.30;;;-1.20;99.90;;;;;;4992183;28;20195;-76
2020/12/10 06:33:40;;;;;;;37.08;17.92;;;-1.20;99.90;;;;;;4993078;28;20202;-76
2020/12/10 06:36:23;;;;;;;28.90;16.70;;;-1.20;99.90;;;;;;4993480;28;20178;-75
2020/12/10 06:38:53;;;;;;;33.40;15.82;;;-1.10;99.90;;;;;;4993326;28;20172;-76
2020/12/10 06:41:19;;;;;;;36.78;17.50;;;-1.10;99.90;;;;;;4993259;28;20202;-75
2020/12/10 06:43:45;;;;;;;33.13;16.80;;;-1.00;99.90;;;;;;4994954;28;20183;-76
2020/12/10 06:46:11;;;;;;;33.88;17.65;;;-1.00;99.90;;;;;;4996845;28;20946;-75
2020/12/10 06:48:42;;;;;;;30.97;18.20;;;-1.00;99.90;;;;;;4996897;28;20243;-76
2020/12/10 06:51:12;;;;;;;28.75;15.50;;;-0.90;99.90;;;;;;4996513;28;20261;-77
2020/12/10 06:53:38;;;;;;;25.38;14.35;;;-0.80;99.90;;;;;;4996851;28;20222;-77
2020/12/10 06:56:13;;;;;;;41.27;17.93;;;-0.90;99.90;;;;;;4997134;28;20169;-77
2020/12/10 06:58:40;;;;;;;32.22;16.35;;;-0.80;99.90;;;;;;4996698;28;20413;-77
2020/12/10 07:01:19;;;;;;;30.70;16.27;;;-0.80;99.90;;;;;;4996796;28;20196;-77
2020/12/10 07:03:45;;;;;;;31.55;16.65;;;-0.80;99.90;;;;;;4996660;28;20237;-77
2020/12/10 07:06:21;;;;;;;30.20;15.40;;;-0.90;99.90;;;;;;4996874;28;20211;-77
2020/12/10 07:09:08;;;;;;;33.83;16.52;;;-0.80;99.90;;;;;;4995344;28;20467;-74
2020/12/10 07:11:36;;;;;;;29.88;15.50;;;-1.00;99.90;;;;;;4996185;28;20187;-75
2020/12/10 07:14:23;;;;;;;30.23;16.50;;;-0.90;99.90;;;;;;4994669;28;20588;-76
2020/12/10 07:16:49;;;;;;;31.80;16.15;;;-1.00;99.90;;;;;;4996474;28;20171;-75
2020/12/10 07:19:15;;;;;;;30.45;16.25;;;-1.10;99.90;;;;;;4996231;28;20230;-76
2020/12/10 07:21:44;;;;;;;27.60;14.60;;;-1.10;99.90;;;;;;4995101;28;20215;-74
2020/12/10 07:24:10;;;;;;;24.20;13.40;;;-1.10;99.90;;;;;;4996252;28;20450;-74
2020/12/10 07:26:38;;;;;;;31.80;14.90;;;-1.10;99.90;;;;;;4996296;28;20179;-75
2020/12/10 07:29:04;;;;;;;30.52;16.23;;;-1.10;99.90;;;;;;4996262;28;20192;-75
2020/12/10 07:31:30;;;;;;;23.80;13.82;;;-1.10;99.90;;;;;;4996183;28;20245;-75
2020/12/10 07:34:02;;;;;;;35.13;17.55;;;-1.00;99.90;;;;;;4996076;28;20190;-75
2020/12/10 07:36:30;;;;;;;27.48;15.15;;;-1.00;99.90;;;;;;4996076;28;20240;-75
2020/12/10 07:38:56;;;;;;;31.25;16.70;;;-1.10;99.90;;;;;;4996004;28;20742;-75
2020/12/10 07:41:21;;;;;;;29.83;15.10;;;-1.00;99.90;;;;;;4995901;28;20206;-75
2020/12/10 07:43:53;;;;;;;29.20;14.90;;;-1.10;99.90;;;;;;4995557;28;20262;-75
2020/12/10 07:46:19;;;;;;;30.27;15.20;;;-1.00;99.90;;;;;;4994764;28;20184;-75
2020/12/10 07:48:46;;;;;;;34.20;17.30;;;-1.00;99.90;;;;;;4995917;28;20205;-76
2020/12/10 07:51:22;;;;;;;31.52;15.55;;;-1.00;99.90;;;;;;4995689;28;20219;-77
2020/12/10 07:53:48;;;;;;;29.98;15.90;;;-1.10;99.90;;;;;;4995576;28;20179;-77
2020/12/10 07:56:26;;;;;;;26.15;14.77;;;-1.10;99.90;;;;;;4995137;28;20213;-77
2020/12/10 07:59:08;;;;;;;24.38;14.10;;;-1.10;99.90;;;;;;4995878;28;20164;-76
2020/12/10 08:01:42;;;;;;;29.23;15.57;;;-1.10;99.90;;;;;;4995575;28;20191;-78
2020/12/10 08:04:17;;;;;;;30.05;14.82;;;-1.00;99.90;;;;;;4995628;28;20200;-75
2020/12/10 08:06:44;;;;;;;27.27;14.63;;;-1.00;99.90;;;;;;4995730;28;20171;-75
2020/12/10 08:09:11;;;;;;;28.05;15.85;;;-1.00;99.90;;;;;;4995425;28;20193;-75
2020/12/10 08:11:50;;;;;;;26.23;14.38;;;-1.00;99.90;;;;;;4994156;28;20546;-76
2020/12/10 08:14:24;;;;;;;25.75;14.93;;;-1.00;99.90;;;;;;4995295;28;20585;-76
2020/12/10 08:16:50;;;;;;;24.98;14.88;;;-0.90;99.90;;;;;;4995412;28;20186;-75
2020/12/10 08:19:30;;;;;;;33.20;15.90;;;-0.90;99.90;;;;;;4995429;28;20179;-76
2020/12/10 08:21:57;;;;;;;31.58;16.63;;;-0.80;99.90;;;;;;4994723;28;20278;-75
2020/12/10 08:24:44;;;;;;;29.70;16.77;;;-0.80;99.90;;;;;;4995045;28;20190;-76
2020/12/10 08:27:14;;;;;;;25.05;15.07;;;-0.80;99.90;;;;;;4995042;28;20229;-76
2020/12/10 08:29:40;;;;;;;32.13;17.35;;;-0.80;99.90;;;;;;4993914;28;20595;-76
2020/12/10 08:32:14;;;;;;;26.60;16.20;;;-0.70;99.90;;;;;;4994713;28;20263;-76
2020/12/10 08:34:46;;;;;;;28.27;16.23;;;-0.60;99.90;;;;;;4995262;28;20597;-76
2020/12/10 08:37:12;;;;;;;33.40;16.67;;;-0.60;99.90;;;;;;4995068;28;20236;-76
2020/12/10 08:39:39;;;;;;;38.53;17.00;;;-0.50;99.90;;;;;;4997019;28;20310;-75
2020/12/10 08:42:06;;;;;;;34.45;15.90;;;-0.50;99.90;;;;;;4994589;28;20184;-75
2020/12/10 08:44:47;;;;;;;31.30;16.92;;;-0.40;99.90;;;;;;4995094;28;20591;-76
2020/12/10 08:47:12;;;;;;;38.55;17.48;;;-0.30;99.90;;;;;;4994644;28;20234;-77
2020/12/10 08:49:38;;;;;;;30.20;15.97;;;-0.30;99.90;;;;;;4994825;28;20167;-75
2020/12/10 08:52:05;;;;;;;32.42;17.02;;;-0.30;99.90;;;;;;4994427;28;20257;-75
2020/12/10 08:54:32;;;;;;;32.93;16.30;;;-0.10;99.90;;;;;;4994719;28;20171;-75
2020/12/10 08:57:10;;;;;;;34.20;16.25;;;-0.10;99.90;;;;;;4993801;28;20171;-76
2020/12/10 08:59:35;;;;;;;33.97;16.00;;;0.00;99.90;;;;;;4993715;28;20190;-76
2020/12/10 09:02:01;;;;;;;35.90;17.90;;;0.10;99.90;;;;;;4994299;28;20219;-76
2020/12/10 09:04:30;;;;;;;27.10;15.70;;;0.10;99.90;;;;;;4994839;28;20196;-77
2020/12/10 09:06:55;;;;;;;31.07;16.70;;;0.20;99.90;;;;;;4994507;28;20250;-76
2020/12/10 09:09:41;;;;;;;32.33;17.43;;;0.30;99.90;;;;;;4993207;28;20593;-76
2020/12/10 09:12:07;;;;;;;31.65;17.75;;;0.40;99.90;;;;;;4993861;28;20315;-77
2020/12/10 09:14:32;;;;;;;32.80;16.23;;;0.40;99.90;;;;;;4994282;28;20183;-76
2020/12/10 09:16:59;;;;;;;27.30;15.88;;;0.40;99.90;;;;;;4994235;28;20184;-76
2020/12/10 09:19:25;;;;;;;31.53;16.63;;;0.50;99.90;;;;;;4976850;28;20183;-76
2020/12/10 09:21:52;;;;;;;35.87;19.07;;;0.50;99.90;;;;;;4993773;28;20226;-76
2020/12/10 09:24:27;;;;;;;34.85;19.33;;;0.60;99.90;;;;;;4994415;28;20480;-76
2020/12/10 09:26:52;;;;;;;51.67;22.83;;;0.50;99.90;;;;;;4994128;28;20254;-75
2020/12/10 09:29:20;;;;;;;40.87;22.00;;;0.60;99.90;;;;;;4994040;28;20239;-75
2020/12/10 09:31:53;;;;;;;57.72;23.95;;;0.70;99.90;;;;;;4992694;28;20212;-75
2020/12/10 09:34:31;;;;;;;43.17;23.08;;;0.70;99.90;;;;;;4994035;28;20557;-75
2020/12/10 09:37:02;;;;;;;39.03;22.02;;;0.80;99.90;;;;;;4993899;28;20191;-75
2020/12/10 09:39:32;;;;;;;42.42;23.05;;;0.90;99.90;;;;;;4994221;28;20202;-76
2020/12/10 09:41:59;;;;;;;47.28;22.75;;;1.10;99.90;;;;;;4992443;28;20226;-75
2020/12/10 09:44:25;;;;;;;41.80;22.90;;;1.10;99.90;;;;;;4992583;28;20263;-76
2020/12/10 09:46:50;;;;;;;45.40;23.43;;;1.10;99.90;;;;;;4993859;28;20640;-75
2020/12/10 09:49:16;;;;;;;52.13;23.73;;;1.10;99.90;;;;;;4993903;28;20253;-75
2020/12/10 09:51:47;;;;;;;40.97;21.43;;;1.30;99.90;;;;;;4993916;28;20194;-75
2020/12/10 09:59:29;;;;;;;32.53;21.42;;;1.80;99.90;;;;;;4994065;28;20185;-75
2020/12/10 10:02:16;;;;;;;32.45;19.52;;;2.10;99.90;;;;;;4993179;28;20218;-75
2020/12/10 10:04:42;;;;;;;40.25;19.73;;;2.30;99.90;;;;;;4993368;28;20191;-75
2020/12/10 10:07:08;;;;;;;26.60;17.63;;;2.40;99.90;;;;;;4993691;28;20172;-75
2020/12/10 10:09:34;;;;;;;30.57;18.70;;;2.80;99.90;;;;;;4992465;28;20289;-76
2020/12/10 10:12:00;;;;;;;29.23;16.73;;;3.30;99.90;;;;;;4993263;28;20211;-76
2020/12/10 10:14:26;;;;;;;25.10;15.90;;;3.80;99.90;;;;;;4992359;28;20188;-75
2020/12/10 10:16:54;;;;;;;21.00;13.87;;;4.10;99.90;;;;;;4992327;28;20414;-76
2020/12/10 10:19:41;;;;;;;18.77;13.18;;;4.30;99.90;;;;;;4995705;28;20520;-75
2020/12/10 10:22:10;;;;;;;28.35;12.50;;;3.80;99.90;;;;;;4996115;28;20260;-75
2020/12/10 10:24:36;;;;;;;19.95;12.32;;;3.90;99.90;;;;;;4997198;28;20194;-75
2020/12/10 10:27:01;;;;;;;20.30;12.50;;;4.00;99.90;;;;;;4997228;28;20606;-74
2020/12/10 10:29:28;;;;;;;17.37;12.00;;;3.90;99.90;;;;;;4997276;28;20265;-74
2020/12/10 10:31:54;;;;;;;16.33;12.07;;;4.50;99.90;;;;;;4996783;28;20810;-74
2020/12/10 10:34:20;;;;;;;20.17;13.27;;;4.30;99.90;;;;;;4996859;28;20187;-74
2020/12/10 10:36:48;;;;;;;17.80;13.47;;;4.10;99.90;;;;;;4997315;28;20584;-74
2020/12/10 10:39:14;;;;;;;23.67;13.40;;;4.00;99.90;;;;;;4997088;28;20262;-74
2020/12/10 10:41:41;;;;;;;20.07;13.63;;;3.30;99.90;;;;;;4997276;28;20232;-75
2020/12/10 10:44:08;;;;;;;26.52;15.90;;;3.00;99.90;;;;;;4996846;28;20273;-74
2020/12/10 10:46:34;;;;;;;22.33;14.82;;;2.90;99.90;;;;;;4996928;28;20190;-74
2020/12/10 10:49:04;;;;;;;25.00;15.60;;;2.80;99.90;;;;;;4996876;28;20207;-74
2020/12/10 10:51:29;;;;;;;26.67;16.33;;;2.90;99.90;;;;;;4995610;28;20199;-74
2020/12/10 10:53:55;;;;;;;25.77;15.67;;;2.70;99.90;;;;;;4996616;28;20528;-74
2020/12/10 10:56:22;;;;;;;25.97;14.70;;;2.80;99.90;;;;;;4996868;28;20408;-74
2020/12/10 10:58:50;;;;;;;26.58;16.25;;;2.90;99.90;;;;;;4996579;28;20410;-74
2020/12/10 11:01:23;;;;;;;26.90;16.10;;;2.80;99.90;;;;;;4995340;28;20294;-74
2020/12/10 11:03:49;;;;;;;32.97;18.55;;;2.70;99.90;;;;;;4996352;28;20179;-74
2020/12/10 11:06:18;;;;;;;26.20;16.93;;;2.80;99.90;;;;;;4996818;28;20270;-74
2020/12/10 11:08:44;;;;;;;25.23;16.45;;;2.80;99.90;;;;;;4995690;28;20569;-75
2020/12/10 11:11:09;;;;;;;30.58;17.17;;;2.70;99.90;;;;;;4995242;28;20201;-75
2020/12/10 11:13:35;;;;;;;23.13;14.73;;;2.70;99.90;;;;;;4996378;28;20175;-75
2020/12/10 11:16:01;;;;;;;23.00;15.43;;;2.70;99.90;;;;;;4997207;28;20411;-74
2020/12/10 11:18:48;;;;;;;26.90;15.77;;;2.80;99.90;;;;;;4995148;28;20620;-75
2020/12/10 11:21:14;;;;;;;24.70;15.45;;;2.80;99.90;;;;;;4996106;28;20435;-74
2020/12/10 11:23:42;;;;;;;25.83;14.85;;;2.90;99.90;;;;;;4995888;28;20269;-75
2020/12/10 11:26:07;;;;;;;27.02;16.52;;;2.80;99.90;;;;;;4996255;28;20189;-75
2020/12/10 11:28:33;;;;;;;24.43;16.33;;;2.80;99.90;;;;;;4995975;28;20714;-75
2020/12/10 11:30:58;;;;;;;26.97;16.53;;;2.80;99.90;;;;;;4994684;28;20298;-77
2020/12/10 11:33:26;;;;;;;22.67;15.23;;;2.70;99.90;;;;;;4995385;28;20187;-75
2020/12/10 11:36:12;;;;;;;26.70;15.00;;;2.70;99.90;;;;;;4996086;28;20171;-75
2020/12/10 11:38:37;;;;;;;26.00;14.93;;;2.90;99.90;;;;;;4996024;28;20178;-75
2020/12/10 11:41:06;;;;;;;25.30;16.30;;;2.90;99.90;;;;;;4995881;28;20210;-75
2020/12/10 11:43:34;;;;;;;25.75;15.13;;;3.00;99.90;;;;;;4995528;28;20186;-75
2020/12/10 11:46:01;;;;;;;21.47;13.50;;;2.90;99.90;;;;;;4995734;28;20184;-75
2020/12/10 11:48:34;;;;;;;24.88;15.88;;;3.00;99.90;;;;;;4996081;28;20220;-74
2020/12/10 11:51:00;;;;;;;20.97;14.00;;;3.20;99.90;;;;;;4996681;28;20587;-74
2020/12/10 11:53:32;;;;;;;19.47;14.47;;;3.20;99.90;;;;;;5012287;28;20271;-75
2020/12/10 11:55:58;;;;;;;19.50;14.90;;;3.10;99.90;;;;;;5013407;28;20198;-74
2020/12/10 11:58:23;;;;;;;29.90;14.93;;;3.00;99.90;;;;;;5012063;28;20550;-75
2020/12/10 12:00:49;;;;;;;26.97;15.17;;;3.00;99.90;;;;;;5012636;28;20753;-75
2020/12/10 12:03:15;;;;;;;24.30;14.10;;;3.00;99.90;;;;;;5012237;28;20194;-75
2020/12/10 12:05:40;;;;;;;21.20;13.73;;;2.90;99.90;;;;;;5012339;28;20212;-75
2020/12/10 12:08:06;;;;;;;20.37;13.00;;;3.00;99.90;;;;;;5013725;28;21009;-74
2020/12/10 12:10:32;;;;;;;21.83;13.03;;;3.00;99.90;;;;;;5013459;28;20195;-76
2020/12/10 12:12:58;;;;;;;22.43;14.70;;;2.90;99.90;;;;;;5012549;28;20265;-74
2020/12/10 12:15:23;;;;;;;33.27;18.53;;;2.90;99.90;;;;;;5011969;28;20190;-73
2020/12/10 12:17:49;;;;;;;28.87;15.30;;;2.80;99.90;;;;;;5013498;28;20449;-74
2020/12/10 12:20:14;;;;;;;25.50;15.70;;;2.90;99.90;;;;;;5010986;28;20203;-75
2020/12/10 12:22:40;;;;;;;20.67;13.97;;;3.00;99.90;;;;;;5013147;28;20552;-75
2020/12/10 12:25:06;;;;;;;25.03;15.47;;;3.10;99.90;;;;;;5013112;28;20230;-75
2020/12/10 12:27:33;;;;;;;23.10;14.38;;;3.10;99.90;;;;;;5011193;28;20195;-75
2020/12/10 12:29:59;;;;;;;17.40;12.27;;;3.10;99.90;;;;;;5011461;28;20247;-75
2020/12/10 12:32:40;;;;;;;21.13;12.98;;;3.10;99.90;;;;;;5013143;28;20202;-76
2020/12/10 12:35:07;;;;;;;21.43;13.20;;;3.10;99.90;;;;;;5012383;28;20176;-75
2020/12/10 12:37:33;;;;;;;20.55;13.00;;;3.10;99.90;;;;;;5012094;28;20198;-76
2020/12/10 12:39:58;;;;;;;21.87;12.87;;;3.20;99.90;;;;;;5012649;28;20307;-77
2020/12/10 12:42:53;;;;;;;20.60;12.00;;;3.20;99.90;;;;;;5012087;28;20191;-75
2020/12/10 12:45:28;;;;;;;16.50;11.75;;;3.20;99.90;;;;;;5013107;28;20527;-76
2020/12/10 12:47:54;;;;;;;19.95;12.60;;;3.20;99.90;;;;;;5012349;28;20193;-75
2020/12/10 12:50:21;;;;;;;19.65;12.30;;;3.20;99.90;;;;;;5012348;28;20194;-74